Latest Coastal Weather Observations for Eucla

IDW60701

Issued at 9:22 pm WST Monday 31 August 2015 (issued every 10 minutes, with the page automatically refreshed every 10 minutes)

About coastal observations | Map of coastal stations | Coastal observations for WA | Marine services | Other Formats
Station Details ID: 011003 Name: EUCLA Lat: -31.68 Lon: 128.90 Height: 93.1 m
Data from the previous 72 hours. | See also: Recent months at Eucla
Date/Time
WST
Temp

°C
Wind Pressure Rain
since 9am
mm
Weather Cloud Vis
km
Sea
Height
m
Swell
Dir
 
Speed
knots
Gust
knots
hPa Trend Height
m
Period
s
Dir
31/09:00pm 11.7 E 5 7 1013.3 - 0.2 - - - - - - -
31/08:30pm 12.2 E 6 7 1013.4 - 0.2 - - - - - - -
31/08:00pm 12.4 ESE 6 8 1013.8 - 0.2 - - - - - - -
31/07:30pm 12.4 ESE 6 7 1014.1 - 0.2 - - - - - - -
31/07:00pm 12.4 ESE 6 7 1014.1 - 0.2 - - - - - - -
31/06:30pm 12.5 ESE 5 6 1014.2 - 0.2 - - - - - - -
31/06:00pm 12.7 ESE 5 6 1014.2 - 0.2 - - - - - - -
31/05:30pm 12.9 ESE 5 5 1014.4 - 0.2 - - - - - - -
31/05:00pm 13.6 SE 3 5 1014.6 - 0.2 - - - - - - -
31/04:30pm 14.1 SE 6 9 1014.8 - 0.2 - - - - - - -
31/04:00pm 14.7 SE 6 9 1014.7 - 0.2 - - - - - - -
31/03:30pm 15.1 SSE 6 8 1015.0 - 0.2 - - - - - - -
31/03:00pm 15.2 SSE 6 9 1015.1 - 0.2 Haze Partly cloudy 20 - - - -
31/02:30pm 15.5 SE 7 11 1015.1 - 0.2 - - - - - - -
31/02:00pm 15.2 SSE 5 12 1015.3 - 0.0 - - - - - - -
31/01:30pm 15.7 SSE 8 12 1015.4 - 0.0 - - - - - - -
31/01:00pm 15.2 SE 11 16 1014.5 - 0.0 - - - - - - -
31/12:30pm 15.9 SSE 7 11 1016.3 - 0.0 - - - - - - -
31/12:00pm 15.4 S 7 11 1016.8 - 0.0 - - - - - - -
31/11:30am 15.0 S 7 10 1017.3 - 0.0 - - - - - - -
31/11:00am 15.5 SSE 8 14 1017.5 - 0.0 - - - - - - -
31/10:30am 15.7 S 7 10 1017.5 - 0.0 - - - - - - -
31/10:00am 16.2 SSW 9 13 1018.3 - 0.0 - - - - - - -
31/09:30am 15.3 S 8 11 1018.4 - 0.0 - - - - - - -
31/09:00am 15.9 S 9 14 1018.4 - 5.6 Haze Mostly cloudy 20 - - - -
31/08:30am 15.3 S 10 14 1018.7 - 5.6 - - - - - - -
31/08:00am 15.1 S 9 14 1018.8 - 5.6 - - - - - - -
31/07:30am 14.5 SSW 9 13 1018.5 - 5.6 - - - - - - -
31/07:00am 14.1 SSW 7 11 1018.6 - 5.6 - - - - - - -
31/06:30am 13.6 SSW 9 13 1018.3 - 5.6 - - - - - - -
31/06:00am 12.9 SSW 8 11 1018.1 - 5.6 - - - - - - -
31/05:30am 13.0 S 7 10 1017.9 - 5.6 - - - - - - -
31/05:00am 12.9 S 6 9 1018.0 - 5.6 - - - - - - -
31/04:30am 13.1 S 9 12 1017.7 - 5.4 - - - - - - -
31/04:00am 13.1 SSW 8 12 1017.7 - 5.4 - - - - - - -
31/03:30am 13.0 SSW 8 11 1017.7 - 5.4 - - - - - - -
31/03:00am 12.7 SW 8 11 1017.6 - 5.4 - - - - - - -
31/02:30am 12.9 SW 7 9 1017.8 - 5.4 - - - - - - -
31/02:00am 13.0 SW 6 8 1018.0 - 5.4 - - - - - - -
31/01:30am 13.1 SW 5 7 1018.3 - 5.4 - - - - - - -
31/01:00am 13.0 SW 8 10 1018.3 - 5.4 - - - - - - -
31/12:30am 12.9 WSW 7 10 1018.7 - 5.4 - - - - - - -
31/12:00am 13.2 WSW 7 10 1018.6 - 5.4 - - - - - - -
 
Date/Time
WST
Temp

°C
Wind Pressure Rain
since 9am
mm
Weather Cloud Vis
km
Sea
Height
m
Swell
Dir
 
Speed
knots
Gust
knots
hPa Trend Height
m
Period
s
Dir
30/11:30pm 13.5 WSW 7 10 1018.5 - 5.4 - - - - - - -
30/11:00pm 13.7 WSW 7 11 1018.4 - 5.4 - - - - - - -
30/10:30pm 13.8 WSW 7 10 1018.4 - 5.4 - - - - - - -
30/10:00pm 14.0 W 8 10 1018.5 - 5.4 - - - - - - -
30/09:30pm 13.9 W 7 11 1018.6 - 5.4 - - - - - - -
30/09:00pm 14.2 W 8 10 1018.4 - 5.4 - - - - - - -
30/08:30pm 14.4 W 8 11 1018.2 - 5.4 - - - - - - -
30/08:00pm 14.8 W 8 13 1018.0 - 5.4 - - - - - - -
30/07:30pm 15.6 W 7 10 1017.6 - 5.4 - - - - - - -
30/07:00pm 16.0 N 8 11 1016.1 - 5.4 - - - - - - -
30/06:30pm 16.3 NNE 9 14 1015.5 - 5.4 - - - - - - -
30/06:00pm 16.8 NNE 11 15 1015.1 - 5.4 - - - - - - -
30/05:30pm 17.1 NNE 12 17 1014.7 - 5.4 - - - - - - -
30/05:00pm 17.4 NNE 11 18 1014.4 - 5.4 - - - - - - -
30/04:30pm 17.7 NE 9 14 1014.5 - 5.4 - - - - - - -
30/04:00pm 17.9 NE 9 12 1014.8 - 5.4 - - - - - - -
30/03:30pm 19.9 NE 9 13 1014.3 - 3.4 - - - - - - -
30/03:00pm 21.2 ENE 10 14 1014.3 - 3.4 Distant precip. Mostly cloudy 20 - - - -
30/02:30pm 22.4 ENE 9 14 1014.3 - 3.4 - - - - - - -
30/02:00pm 22.1 ENE 7 10 1014.5 - 3.4 - - - - - - -
30/01:30pm 20.8 NE 7 9 1015.0 - 3.4 - - - - - - -
30/01:00pm 19.7 E 4 5 1015.0 - 3.4 - - - - - - -
30/12:30pm 17.3 NNE 7 9 1015.2 - 3.4 - - - - - - -
30/12:00pm 16.1 NNE 5 7 1016.1 - 3.4 Recent precip. - - - - - -
30/11:30am 16.2 NW 8 10 1016.5 - 2.6 - - - - - - -
30/11:14am 16.7 NNW 11 15 1016.3 - 1.6 - - - - - - -
30/11:00am 21.8 NNW 9 15 1016.3 - 0.8 - - - - - - -
30/10:30am 20.5 N 7 10 1016.3 - 0.8 - - - - - - -
30/10:00am 20.1 N 9 12 1016.3 - 0.8 - - - - - - -
30/09:59am 19.9 N 9 12 1016.3 - 0.8 - - - - - - -
30/09:30am 14.9 N 10 13 1016.4 - 0.8 - - - - - - -
30/09:00am 18.3 N 12 17 1016.7 - 0.0 Fine Mostly cloudy 40 - - - -
30/08:30am 17.5 N 14 19 1016.6 - 0.0 - - - - - - -
30/08:00am 16.7 NNE 16 22 1016.7 - 0.0 - - - - - - -
30/07:30am 15.2 NNE 15 21 1016.6 - 0.0 - - - - - - -
30/07:00am 13.9 NNE 14 23 1016.4 - 0.0 - - - - - - -
30/06:30am 12.8 NNE 14 20 1016.2 - 0.0 - - - - - - -
30/06:00am 12.6 NNE 14 22 1016.0 - 0.0 - - - - - - -
30/05:30am 12.6 NNE 14 22 1015.9 - 0.0 - - - - - - -
30/05:00am 12.7 NNE 15 22 1015.8 - 0.0 - - - - - - -
30/04:30am 13.3 NNE 15 20 1015.8 - 0.0 - - - - - - -
30/04:00am 13.2 NNE 14 20 1015.3 - 0.0 - - - - - - -
30/03:30am 13.0 NNE 14 20 1015.4 - 0.0 - - - - - - -
30/03:00am 12.8 NNE 15 21 1015.7 - 0.0 - - - - - - -
30/02:30am 13.4 NNE 15 20 1015.7 - 0.0 - - - - - - -
30/02:00am 13.8 NNE 15 22 1016.1 - 0.0 - - - - - - -
30/01:30am 14.1 NNE 15 22 1016.5 - 0.0 - - - - - - -
30/01:00am 13.9 NNE 14 19 1017.0 - 0.0 - - - - - - -
30/12:30am 13.9 NE 14 22 1017.4 - 0.0 - - - - - - -
30/12:00am 13.9 NE 12 17 1017.6 - 0.0 - - - - - - -
 
Date/Time
WST
Temp

°C
Wind Pressure Rain
since 9am
mm
Weather Cloud Vis
km
Sea
Height
m
Swell
Dir
 
Speed
knots
Gust
knots
hPa Trend Height
m
Period
s
Dir
29/11:30pm 14.6 NE 12 18 1018.1 - 0.0 - - - - - - -
29/11:00pm 15.0 NE 12 18 1018.3 - 0.0 - - - - - - -
29/10:30pm 15.3 NE 12 19 1018.6 - 0.0 - - - - - - -
29/10:00pm 14.6 NE 11 17 1018.5 - 0.0 - - - - - - -
29/09:30pm 14.1 NE 11 15 1018.6 - 0.0 - - - - - - -
29/09:00pm 14.1 ENE 11 17 1018.8 - 0.0 - - - - - - -
29/08:30pm 14.1 ENE 11 16 1019.1 - 0.0 - - - - - - -
29/08:00pm 14.4 ENE 11 16 1019.3 - 0.0 - - - - - - -
29/07:30pm 14.6 ENE 10 17 1019.3 - 0.0 - - - - - - -
29/07:00pm 14.6 ENE 10 15 1019.3 - 0.0 - - - - - - -
29/06:30pm 14.7 ENE 9 14 1019.3 - 0.0 - - - - - - -
29/06:00pm 14.8 ENE 10 15 1019.1 - 0.0 - - - - - - -
29/05:30pm 15.4 E 12 17 1018.9 - 0.0 - - - - - - -
29/05:00pm 16.0 E 11 17 1018.8 - 0.0 - - - - - - -
29/04:30pm 16.7 E 11 17 1018.6 - 0.0 - - - - - - -
29/04:00pm 17.7 E 13 19 1018.6 - 0.0 - - - - - - -
29/03:30pm 18.3 E 13 20 1018.6 - 0.0 - - - - - - -
29/03:00pm 19.0 E 13 20 1018.6 - 0.0 Fine Mostly clear 40 - - - -
29/02:30pm 19.3 ESE 13 18 1018.9 - 0.0 - - - - - - -
29/02:00pm 19.2 ESE 12 17 1019.1 - 0.0 - - - - - - -
29/01:30pm 19.5 ESE 11 18 1019.3 - 0.0 - - - - - - -
29/01:00pm 19.9 ENE 9 15 1019.8 - 0.0 - - - - - - -
29/12:30pm 23.0 NE 9 15 1020.1 - 0.0 - - - - - - -
29/12:00pm 22.9 NNE 10 17 1020.6 - 0.0 - - - - - - -
29/11:30am 22.3 NNE 13 18 1021.2 - 0.0 - - - - - - -
29/11:00am 21.2 NNE 12 18 1021.7 - 0.0 - - - - - - -
29/10:30am 20.4 NNE 13 19 1022.2 - 0.0 - - - - - - -
29/10:00am 19.2 NNE 14 22 1022.5 - 0.0 - - - - - - -
29/09:30am 18.8 NE 14 22 1022.7 - 0.0 - - - - - - -
29/09:00am 17.3 NNE 14 19 1023.1 - 0.0 Fine Clear 40 - - - -
29/08:30am 15.9 NNE 14 19 1023.2 - 0.0 - - - - - - -
29/08:00am 14.8 NNE 13 19 1023.3 - 0.0 - - - - - - -
29/07:30am 13.0 NNE 12 17 1023.4 - 0.0 - - - - - - -
29/07:00am 11.0 NNE 11 16 1023.2 - 0.0 - - - - - - -
29/06:30am 8.5 NNE 11 15 1022.9 - 0.0 - - - - - - -
29/06:00am 7.7 NNE 9 14 1022.8 - 0.0 - - - - - - -
29/05:30am 7.7 NE 9 14 1022.6 - 0.0 - - - - - - -
29/05:00am 8.1 NE 10 14 1022.5 - 0.0 - - - - - - -
29/04:30am 8.5 NE 9 14 1022.5 - 0.0 - - - - - - -
29/04:00am 8.7 NE 11 15 1022.4 - 0.0 - - - - - - -
29/03:30am 9.0 NE 11 16 1022.3 - 0.0 - - - - - - -
29/03:00am 9.6 NE 11 17 1022.5 - 0.0 - - - - - - -
29/02:30am 9.7 NE 11 18 1022.8 - 0.0 - - - - - - -
29/02:00am 10.0 NE 10 16 1022.9 - 0.0 - - - - - - -
29/01:30am 10.1 NE 12 16 1023.2 - 0.0 - - - - - - -
29/01:00am 10.0 NE 11 15 1023.5 - 0.0 - - - - - - -
29/12:30am 10.0 NE 10 16 1023.7 - 0.0 - - - - - - -
29/12:00am 9.8 NE 9 12 1023.9 - 0.0 - - - - - - -
 
Date/Time
WST
Temp

°C
Wind Pressure Rain
since 9am
mm
Weather Cloud Vis
km
Sea
Height
m
Swell
Dir
 
Speed
knots
Gust
knots
hPa Trend Height
m
Period
s
Dir
28/11:30pm 10.2 ENE 9 13 1024.1 - 0.0 - - - - - - -
28/11:00pm 10.6 ENE 9 14 1024.2 - 0.0 - - - - - - -
28/10:30pm 10.9 ENE 8 13 1024.4 - 0.0 - - - - - - -
28/10:00pm 11.3 ENE 8 11 1024.6 - 0.0 - - - - - - -
28/09:30pm 11.6 ENE 8 12 1024.8 - 0.0 - - - - - - -

Other Formats:

Comma delimited format used in spreadsheet applications
http://www.bom.gov.au/fwo/IDW60701/IDW60701.94647.axf

JavaScript Object Notation format (JSON) in row-major order
http://www.bom.gov.au/fwo/IDW60701/IDW60701.94647.json